UAL200 KCPR-KDEN
Flight info
| Callsign | UAL200 |
|---|---|
| Flight time | 0h 41m |
| Altitude | 30000 |
| Route | MBW HIPEE FLATI5 |
| Aircraft | B77W/H-SDE1E2E3FGHIJ2J3J4J5M1RWXY/LB1D1 |
Departure
| Time | 2026-04-18 09:52 |
|---|---|
| Airport | Casper-Natrona County International Airport (KCPR) |
Arrival
| Time | 2026-04-18 10:34 |
|---|---|
| Airport | Denver International Airport (KDEN) |
| Time | Latitude | Longitude | Altitude | Speed | Heading |
|---|---|---|---|---|---|
| 2026-04-18 09:18 | 42.89804 | -106.46497 | 5360 ft | 0 kts | 220° |
| 2026-04-18 09:46 | 42.89793 | -106.46512 | 5361 ft | 6 kts | 225° |
| 2026-04-18 09:46 | 42.89798 | -106.46591 | 5361 ft | 6 kts | 324° |
| 2026-04-18 09:47 | 42.89831 | -106.46587 | 5361 ft | 9 kts | 29° |
| 2026-04-18 09:47 | 42.89934 | -106.46463 | 5361 ft | 19 kts | 44° |
| 2026-04-18 09:47 | 42.90038 | -106.46326 | 5361 ft | 21 kts | 44° |
| 2026-04-18 09:47 | 42.90106 | -106.46238 | 5361 ft | 20 kts | 44° |
| 2026-04-18 09:48 | 42.90212 | -106.46099 | 5361 ft | 22 kts | 44° |
| 2026-04-18 09:48 | 42.90308 | -106.45973 | 5361 ft | 20 kts | 44° |
| 2026-04-18 09:48 | 42.90407 | -106.45844 | 5361 ft | 19 kts | 44° |
| 2026-04-18 09:48 | 42.90504 | -106.45716 | 5361 ft | 22 kts | 44° |
| 2026-04-18 09:49 | 42.90586 | -106.45609 | 5361 ft | 10 kts | 44° |
| 2026-04-18 09:49 | 42.90662 | -106.45509 | 5361 ft | 16 kts | 44° |
| 2026-04-18 09:49 | 42.90746 | -106.45400 | 5361 ft | 15 kts | 43° |
| 2026-04-18 09:49 | 42.90820 | -106.45303 | 5361 ft | 17 kts | 44° |
| 2026-04-18 09:50 | 42.90921 | -106.45171 | 5361 ft | 24 kts | 44° |
| 2026-04-18 09:50 | 42.91025 | -106.45034 | 5361 ft | 20 kts | 44° |
| 2026-04-18 09:50 | 42.91128 | -106.44898 | 5361 ft | 21 kts | 44° |
| 2026-04-18 09:50 | 42.91205 | -106.44817 | 5361 ft | 12 kts | 4° |
| 2026-04-18 09:51 | 42.91271 | -106.44876 | 5361 ft | 10 kts | 315° |
| 2026-04-18 09:51 | 42.91282 | -106.44947 | 5361 ft | 9 kts | 240° |
| 2026-04-18 09:51 | 42.91231 | -106.45026 | 5361 ft | 18 kts | 226° |
| 2026-04-18 09:51 | 42.90965 | -106.45374 | 5361 ft | 96 kts | 224° |
| 2026-04-18 09:52 | 42.90281 | -106.46272 | 5367 ft | 173 kts | 224° |
| 2026-04-18 09:52 | 42.89350 | -106.47347 | 6164 ft | 183 kts | 215° |
| 2026-04-18 09:52 | 42.88082 | -106.47694 | 7088 ft | 184 kts | 181° |
| 2026-04-18 09:52 | 42.86865 | -106.47258 | 7961 ft | 186 kts | 161° |
| 2026-04-18 09:53 | 42.85609 | -106.46645 | 8483 ft | 201 kts | 161° |
| 2026-04-18 09:53 | 42.84191 | -106.45992 | 8722 ft | 229 kts | 161° |
| 2026-04-18 09:53 | 42.82581 | -106.45252 | 8976 ft | 258 kts | 161° |
| 2026-04-18 09:53 | 42.80818 | -106.44441 | 9587 ft | 272 kts | 161° |
| 2026-04-18 09:54 | 42.78992 | -106.43599 | 10381 ft | 284 kts | 161° |
| 2026-04-18 09:54 | 42.77077 | -106.42714 | 11089 ft | 302 kts | 161° |
| 2026-04-18 09:54 | 42.75023 | -106.41765 | 11772 ft | 322 kts | 161° |
| 2026-04-18 09:54 | 42.72858 | -106.40763 | 12541 ft | 338 kts | 161° |
| 2026-04-18 09:55 | 42.70572 | -106.39706 | 13365 ft | 354 kts | 161° |
| 2026-04-18 09:55 | 42.68200 | -106.38609 | 14273 ft | 364 kts | 161° |
| 2026-04-18 09:55 | 42.65778 | -106.37489 | 15263 ft | 372 kts | 161° |
| 2026-04-18 09:55 | 42.63303 | -106.36345 | 16270 ft | 378 kts | 161° |
| 2026-04-18 09:56 | 42.60804 | -106.35191 | 17268 ft | 384 kts | 161° |
| 2026-04-18 09:56 | 42.58252 | -106.34013 | 18237 ft | 389 kts | 161° |
| 2026-04-18 09:56 | 42.55648 | -106.32813 | 19170 ft | 395 kts | 161° |
| 2026-04-18 09:56 | 42.53049 | -106.31615 | 20051 ft | 401 kts | 161° |
| 2026-04-18 09:57 | 42.50380 | -106.30387 | 20887 ft | 407 kts | 161° |
| 2026-04-18 09:57 | 42.47666 | -106.29138 | 21745 ft | 413 kts | 161° |
| 2026-04-18 09:57 | 42.44955 | -106.27893 | 22574 ft | 417 kts | 161° |
| 2026-04-18 09:57 | 42.42183 | -106.26620 | 23380 ft | 422 kts | 161° |
| 2026-04-18 09:58 | 42.39376 | -106.25333 | 24149 ft | 427 kts | 161° |
| 2026-04-18 09:58 | 42.36556 | -106.24040 | 24894 ft | 432 kts | 161° |
| 2026-04-18 09:58 | 42.33677 | -106.22722 | 25572 ft | 438 kts | 161° |
| 2026-04-18 09:58 | 42.30785 | -106.21399 | 26369 ft | 440 kts | 161° |
| 2026-04-18 09:59 | 42.27891 | -106.20077 | 27305 ft | 437 kts | 161° |
| 2026-04-18 09:59 | 42.25013 | -106.18763 | 28213 ft | 435 kts | 161° |
| 2026-04-18 09:59 | 42.22151 | -106.17458 | 29120 ft | 433 kts | 161° |
| 2026-04-18 10:00 | 42.16420 | -106.14848 | 30001 ft | 434 kts | 161° |
| 2026-04-18 10:00 | 42.10748 | -106.12254 | 30000 ft | 432 kts | 161° |
| 2026-04-18 10:01 | 42.05034 | -106.09661 | 30013 ft | 432 kts | 161° |
| 2026-04-18 10:01 | 41.99324 | -106.07082 | 30004 ft | 432 kts | 161° |
| 2026-04-18 10:02 | 41.93621 | -106.04511 | 30000 ft | 432 kts | 161° |
| 2026-04-18 10:02 | 41.87950 | -106.01969 | 30002 ft | 432 kts | 162° |
| 2026-04-18 10:03 | 41.82020 | -106.00915 | 30004 ft | 432 kts | 182° |
| 2026-04-18 10:03 | 41.76070 | -106.02121 | 30002 ft | 432 kts | 192° |
| 2026-04-18 10:04 | 41.70195 | -106.03864 | 30003 ft | 432 kts | 192° |
| 2026-04-18 10:04 | 41.64336 | -106.05452 | 30003 ft | 432 kts | 191° |
| 2026-04-18 10:05 | 41.58425 | -106.06954 | 30000 ft | 432 kts | 191° |
| 2026-04-18 10:05 | 41.52519 | -106.08431 | 30000 ft | 432 kts | 191° |
| 2026-04-18 10:06 | 41.46610 | -106.09915 | 30000 ft | 432 kts | 191° |
| 2026-04-18 10:06 | 41.40705 | -106.11390 | 30000 ft | 432 kts | 191° |
| 2026-04-18 10:07 | 41.34805 | -106.12857 | 30000 ft | 432 kts | 191° |
| 2026-04-18 10:07 | 41.28890 | -106.14323 | 30000 ft | 432 kts | 190° |
| 2026-04-18 10:08 | 41.22986 | -106.15783 | 30000 ft | 432 kts | 190° |
| 2026-04-18 10:08 | 41.17064 | -106.17245 | 30000 ft | 432 kts | 190° |
| 2026-04-18 10:09 | 41.11169 | -106.18708 | 30000 ft | 432 kts | 190° |
| 2026-04-18 10:09 | 41.05263 | -106.20160 | 30000 ft | 432 kts | 190° |
| 2026-04-18 10:10 | 40.99360 | -106.21606 | 30000 ft | 431 kts | 190° |
| 2026-04-18 10:10 | 40.93567 | -106.23023 | 29956 ft | 413 kts | 190° |
| 2026-04-18 10:10 | 40.90769 | -106.23706 | 29725 ft | 406 kts | 190° |
| 2026-04-18 10:11 | 40.87980 | -106.24117 | 29476 ft | 397 kts | 179° |
| 2026-04-18 10:11 | 40.85281 | -106.23453 | 29104 ft | 393 kts | 160° |
| 2026-04-18 10:11 | 40.82949 | -106.21723 | 28709 ft | 389 kts | 142° |
| 2026-04-18 10:11 | 40.81124 | -106.19068 | 28107 ft | 391 kts | 122° |
| 2026-04-18 10:12 | 40.80076 | -106.15797 | 27802 ft | 385 kts | 105° |
| 2026-04-18 10:12 | 40.79500 | -106.12362 | 27427 ft | 381 kts | 103° |
| 2026-04-18 10:12 | 40.78768 | -106.09015 | 27053 ft | 378 kts | 109° |
| 2026-04-18 10:12 | 40.77787 | -106.05802 | 26679 ft | 375 kts | 114° |
| 2026-04-18 10:13 | 40.76667 | -106.02751 | 26311 ft | 373 kts | 116° |
| 2026-04-18 10:13 | 40.75495 | -105.99664 | 25935 ft | 370 kts | 116° |
| 2026-04-18 10:13 | 40.74400 | -105.96659 | 25571 ft | 367 kts | 115° |
| 2026-04-18 10:13 | 40.73299 | -105.93578 | 25197 ft | 365 kts | 115° |
| 2026-04-18 10:14 | 40.72240 | -105.90599 | 24835 ft | 362 kts | 115° |
| 2026-04-18 10:14 | 40.71174 | -105.87596 | 24470 ft | 360 kts | 115° |
| 2026-04-18 10:14 | 40.70112 | -105.84628 | 24107 ft | 358 kts | 115° |
| 2026-04-18 10:14 | 40.69049 | -105.81677 | 23745 ft | 355 kts | 115° |
| 2026-04-18 10:15 | 40.67989 | -105.78739 | 23382 ft | 353 kts | 115° |
| 2026-04-18 10:15 | 40.66942 | -105.75841 | 23023 ft | 351 kts | 115° |
| 2026-04-18 10:15 | 40.65897 | -105.72948 | 22664 ft | 348 kts | 115° |
| 2026-04-18 10:15 | 40.64861 | -105.70080 | 22306 ft | 346 kts | 115° |
| 2026-04-18 10:16 | 40.63835 | -105.67222 | 21949 ft | 344 kts | 115° |
| 2026-04-18 10:16 | 40.62823 | -105.64391 | 21593 ft | 342 kts | 115° |
| 2026-04-18 10:16 | 40.61805 | -105.61568 | 21237 ft | 340 kts | 115° |
| 2026-04-18 10:16 | 40.60791 | -105.58773 | 20883 ft | 337 kts | 115° |
| 2026-04-18 10:17 | 40.59776 | -105.55983 | 20528 ft | 335 kts | 115° |
| 2026-04-18 10:17 | 40.58785 | -105.53261 | 20180 ft | 333 kts | 115° |
| 2026-04-18 10:17 | 40.57790 | -105.50532 | 19830 ft | 331 kts | 115° |
| 2026-04-18 10:17 | 40.56789 | -105.47787 | 19477 ft | 329 kts | 115° |
| 2026-04-18 10:18 | 40.55806 | -105.45090 | 19219 ft | 324 kts | 115° |
| 2026-04-18 10:18 | 40.54843 | -105.42447 | 19040 ft | 318 kts | 115° |
| 2026-04-18 10:18 | 40.53879 | -105.39777 | 18715 ft | 327 kts | 115° |
| 2026-04-18 10:18 | 40.52889 | -105.37047 | 18366 ft | 334 kts | 115° |
| 2026-04-18 10:19 | 40.51875 | -105.34270 | 18001 ft | 338 kts | 115° |
| 2026-04-18 10:19 | 40.50845 | -105.31459 | 17410 ft | 346 kts | 116° |
| 2026-04-18 10:19 | 40.49795 | -105.28599 | 17005 ft | 344 kts | 116° |
| 2026-04-18 10:19 | 40.48761 | -105.25787 | 16725 ft | 339 kts | 116° |
| 2026-04-18 10:20 | 40.48086 | -105.23949 | 16608 ft | 333 kts | 116° |
| 2026-04-18 10:20 | 40.47157 | -105.21423 | 16442 ft | 325 kts | 116° |
| 2026-04-18 10:20 | 40.46195 | -105.18784 | 16271 ft | 317 kts | 115° |
| 2026-04-18 10:20 | 40.45395 | -105.16102 | 15988 ft | 313 kts | 109° |
| 2026-04-18 10:21 | 40.44763 | -105.13418 | 15661 ft | 312 kts | 106° |
| 2026-04-18 10:21 | 40.44155 | -105.10696 | 15329 ft | 310 kts | 107° |
| 2026-04-18 10:21 | 40.43529 | -105.08002 | 14999 ft | 308 kts | 107° |
| 2026-04-18 10:21 | 40.42897 | -105.05325 | 14762 ft | 304 kts | 107° |
| 2026-04-18 10:22 | 40.42277 | -105.02709 | 14597 ft | 296 kts | 107° |
| 2026-04-18 10:22 | 40.41666 | -105.00154 | 14438 ft | 289 kts | 107° |
| 2026-04-18 10:22 | 40.41069 | -104.97670 | 14283 ft | 282 kts | 107° |
| 2026-04-18 10:22 | 40.40490 | -104.95268 | 14135 ft | 276 kts | 107° |
| 2026-04-18 10:23 | 40.39912 | -104.92868 | 13987 ft | 270 kts | 107° |
| 2026-04-18 10:23 | 40.39349 | -104.90529 | 13809 ft | 269 kts | 107° |
| 2026-04-18 10:23 | 40.38787 | -104.88169 | 13680 ft | 271 kts | 107° |
| 2026-04-18 10:23 | 40.38230 | -104.85820 | 13524 ft | 270 kts | 107° |
| 2026-04-18 10:24 | 40.37670 | -104.83470 | 13366 ft | 268 kts | 107° |
| 2026-04-18 10:24 | 40.37118 | -104.81163 | 13208 ft | 267 kts | 107° |
| 2026-04-18 10:24 | 40.36555 | -104.78816 | 13047 ft | 267 kts | 107° |
| 2026-04-18 10:24 | 40.36008 | -104.76532 | 12890 ft | 266 kts | 107° |
| 2026-04-18 10:25 | 40.35457 | -104.74231 | 12807 ft | 264 kts | 107° |
| 2026-04-18 10:25 | 40.34904 | -104.71932 | 12777 ft | 264 kts | 107° |
| 2026-04-18 10:25 | 40.34325 | -104.69724 | 12772 ft | 264 kts | 112° |
| 2026-04-18 10:25 | 40.33320 | -104.67638 | 12712 ft | 265 kts | 131° |
| 2026-04-18 10:26 | 40.31859 | -104.66158 | 12594 ft | 266 kts | 149° |
| 2026-04-18 10:26 | 40.30125 | -104.65322 | 12457 ft | 265 kts | 167° |
| 2026-04-18 10:26 | 40.28304 | -104.65091 | 12333 ft | 263 kts | 179° |
| 2026-04-18 10:26 | 40.26488 | -104.65280 | 12210 ft | 261 kts | 187° |
| 2026-04-18 10:27 | 40.24678 | -104.65504 | 12089 ft | 261 kts | 184° |
| 2026-04-18 10:27 | 40.22869 | -104.65600 | 11987 ft | 260 kts | 181° |
| 2026-04-18 10:27 | 40.21061 | -104.65624 | 11893 ft | 260 kts | 180° |
| 2026-04-18 10:27 | 40.19238 | -104.65627 | 11597 ft | 263 kts | 180° |
| 2026-04-18 10:28 | 40.17395 | -104.65630 | 11236 ft | 266 kts | 180° |
| 2026-04-18 10:28 | 40.15538 | -104.65655 | 10876 ft | 268 kts | 180° |
| 2026-04-18 10:28 | 40.13696 | -104.65680 | 10523 ft | 270 kts | 180° |
| 2026-04-18 10:28 | 40.11808 | -104.65704 | 10164 ft | 272 kts | 180° |
| 2026-04-18 10:29 | 40.09922 | -104.65728 | 9809 ft | 274 kts | 180° |
| 2026-04-18 10:29 | 40.08000 | -104.65751 | 9450 ft | 275 kts | 180° |
| 2026-04-18 10:29 | 40.06082 | -104.65775 | 9121 ft | 275 kts | 180° |
| 2026-04-18 10:29 | 40.04204 | -104.65797 | 8816 ft | 262 kts | 180° |
| 2026-04-18 10:30 | 40.02448 | -104.65819 | 8500 ft | 240 kts | 180° |
| 2026-04-18 10:30 | 40.00810 | -104.65838 | 8246 ft | 231 kts | 180° |
| 2026-04-18 10:30 | 39.99219 | -104.65858 | 7965 ft | 231 kts | 180° |
| 2026-04-18 10:30 | 39.97619 | -104.65877 | 7657 ft | 223 kts | 180° |
| 2026-04-18 10:31 | 39.96119 | -104.65895 | 7365 ft | 206 kts | 180° |
| 2026-04-18 10:31 | 39.94758 | -104.65912 | 7101 ft | 192 kts | 180° |
| 2026-04-18 10:31 | 39.93462 | -104.65927 | 6851 ft | 178 kts | 180° |
| 2026-04-18 10:31 | 39.92281 | -104.65941 | 6632 ft | 163 kts | 180° |
| 2026-04-18 10:32 | 39.91180 | -104.65955 | 6420 ft | 154 kts | 180° |
| 2026-04-18 10:32 | 39.90127 | -104.65967 | 6204 ft | 149 kts | 179° |
| 2026-04-18 10:32 | 39.89119 | -104.65978 | 6026 ft | 141 kts | 179° |
| 2026-04-18 10:32 | 39.88473 | -104.65985 | 5897 ft | 141 kts | 179° |
| 2026-04-18 10:33 | 39.87479 | -104.65996 | 5729 ft | 146 kts | 179° |
| 2026-04-18 10:33 | 39.86134 | -104.66013 | 5484 ft | 145 kts | 180° |
| 2026-04-18 10:33 | 39.85478 | -104.66026 | 5445 ft | 125 kts | 180° |
| 2026-04-18 10:33 | 39.84832 | -104.66034 | 5445 ft | 55 kts | 180° |
| 2026-04-18 10:34 | 39.84580 | -104.66035 | 5445 ft | 32 kts | 181° |
| 2026-04-18 10:34 | 39.84353 | -104.66038 | 5445 ft | 33 kts | 180° |
| 2026-04-18 10:34 | 39.84155 | -104.66088 | 5445 ft | 26 kts | 210° |
| 2026-04-18 10:34 | 39.84050 | -104.66166 | 5445 ft | 0 kts | 210° |
| 2026-04-18 10:36 | 39.84039 | -104.66174 | 5445 ft | 6 kts | 210° |
| 2026-04-18 10:36 | 39.83987 | -104.66217 | 5445 ft | 9 kts | 227° |
| 2026-04-18 10:37 | 39.84003 | -104.66275 | 5445 ft | 6 kts | 340° |
| 2026-04-18 10:37 | 39.84079 | -104.66259 | 5445 ft | 16 kts | 11° |
| 2026-04-18 10:37 | 39.84182 | -104.66254 | 5445 ft | 18 kts | 0° |
| 2026-04-18 10:37 | 39.84317 | -104.66252 | 5445 ft | 19 kts | 1° |
| 2026-04-18 10:38 | 39.84476 | -104.66249 | 5445 ft | 26 kts | 1° |
| 2026-04-18 10:38 | 39.84619 | -104.66250 | 5445 ft | 21 kts | 359° |
| 2026-04-18 10:38 | 39.84756 | -104.66248 | 5445 ft | 17 kts | 1° |
| 2026-04-18 10:38 | 39.84903 | -104.66245 | 5445 ft | 25 kts | 1° |
| 2026-04-18 10:39 | 39.85037 | -104.66245 | 5445 ft | 18 kts | 0° |
| 2026-04-18 10:39 | 39.85175 | -104.66245 | 5445 ft | 14 kts | 0° |
| 2026-04-18 10:39 | 39.85258 | -104.66243 | 5445 ft | 12 kts | 1° |
| 2026-04-18 10:39 | 39.85366 | -104.66242 | 5445 ft | 17 kts | 1° |
| 2026-04-18 10:40 | 39.85489 | -104.66240 | 5445 ft | 17 kts | 0° |
| 2026-04-18 10:40 | 39.85572 | -104.66263 | 5445 ft | 13 kts | 309° |
| 2026-04-18 10:40 | 39.85581 | -104.66358 | 5445 ft | 12 kts | 270° |
| 2026-04-18 10:40 | 39.85586 | -104.66482 | 5445 ft | 13 kts | 275° |
| 2026-04-18 10:41 | 39.85590 | -104.66611 | 5445 ft | 17 kts | 271° |
| 2026-04-18 10:41 | 39.85590 | -104.66763 | 5445 ft | 15 kts | 270° |
| 2026-04-18 10:41 | 39.85590 | -104.66900 | 5445 ft | 15 kts | 271° |
| 2026-04-18 10:41 | 39.85592 | -104.67060 | 5445 ft | 20 kts | 270° |
| 2026-04-18 10:42 | 39.85592 | -104.67242 | 5445 ft | 19 kts | 270° |
| 2026-04-18 10:42 | 39.85593 | -104.67401 | 5445 ft | 17 kts | 270° |
| 2026-04-18 10:42 | 39.85594 | -104.67504 | 5445 ft | 13 kts | 270° |
| 2026-04-18 10:42 | 39.85565 | -104.67580 | 5445 ft | 7 kts | 192° |
| 2026-04-18 10:43 | 39.85513 | -104.67584 | 5445 ft | 8 kts | 181° |
| 2026-04-18 10:43 | 39.85465 | -104.67585 | 5445 ft | 4 kts | 180° |
| 2026-04-18 10:43 | 39.85457 | -104.67585 | 5445 ft | 0 kts | 180° |